Wailuku, Hawaii
Current Conditions -  °F | °C
As of 10:54 PM on Friday 31 Oct 2014 (Local Time) from PHOG Reporting Station
Clear Clear  
Wind Chill: 77°   Ceiling: Unl
Heat Index: 79°   Visibility: 10mi
Dew Point: 68°   Wind: 14mph
Humidity: 74%   Direction: 50°NE
Pressure: 30.07"   Gusts: 22mph
Location:  20.89°N, 156.5°W
Report Text: PHOG 010854Z 05012G19KT 10SM CLR 25/20 A3007 RMK AO2 SLP187 60000 T02500200 50006
Loading
Personal Weather Stations






























Interactive Weather Map
Tropical Storm Tracking
New forecast layout! Learn more

10-Day Weather Forecast

Advertisements
Track Severe Weather on mobile